Time;durP1;ratioP1;P1;durP2;ratioP2;P2;SDS_P1;SDS_P2;PMS_P1;PMS_P2;Temp;Humidity;BMP_temperature;BMP_pressure;BME280_temperature;BME280_humidity;BME280_pressure;Samples;Min_cycle;Max_cycle;Signal;HPM_P1;HPM_P2
2021/08/16 00:01:04;;;;;;;11.70;6.40;;;17.50;97.30;;;;;;4956822;28;20258;-84
2021/08/16 00:03:30;;;;;;;9.80;5.20;;;17.50;97.30;;;;;;4956944;28;20200;-84
2021/08/16 00:05:55;;;;;;;13.23;6.00;;;17.40;97.30;;;;;;4958148;28;20186;-85
2021/08/16 00:08:21;;;;;;;9.80;5.10;;;17.40;97.30;;;;;;4958351;28;20179;-84
2021/08/16 00:10:47;;;;;;;8.33;4.73;;;17.40;97.30;;;;;;4958575;28;20198;-84
2021/08/16 00:13:12;;;;;;;10.50;5.57;;;17.40;97.30;;;;;;4958352;28;20189;-84
2021/08/16 00:15:37;;;;;;;11.40;4.70;;;17.40;97.30;;;;;;4974651;28;20190;-84
2021/08/16 00:18:03;;;;;;;7.73;5.30;;;17.40;97.30;;;;;;4975035;28;20183;-84
2021/08/16 00:20:30;;;;;;;14.07;6.30;;;17.30;97.30;;;;;;4975325;28;20751;-84
2021/08/16 00:22:55;;;;;;;11.67;5.43;;;17.30;97.30;;;;;;4974576;28;20421;-84
2021/08/16 00:25:21;;;;;;;9.90;6.00;;;17.20;97.30;;;;;;4955770;28;20837;-83
2021/08/16 00:27:46;;;;;;;14.43;5.57;;;17.20;97.30;;;;;;4974028;28;20186;-84
2021/08/16 00:30:12;;;;;;;14.53;5.93;;;17.10;97.30;;;;;;4973469;28;20230;-84
2021/08/16 00:32:37;;;;;;;13.90;5.80;;;17.10;97.30;;;;;;4956202;28;20186;-84
2021/08/16 00:35:03;;;;;;;10.83;6.27;;;17.00;97.30;;;;;;4956078;28;20187;-85
2021/08/16 00:37:29;;;;;;;9.70;5.40;;;17.00;97.30;;;;;;4956511;28;20657;-85
2021/08/16 00:39:54;;;;;;;13.90;5.10;;;17.00;97.30;;;;;;4958144;28;20242;-84
2021/08/16 00:42:21;;;;;;;13.77;5.77;;;17.00;97.30;;;;;;4958110;28;20230;-85
2021/08/16 00:44:46;;;;;;;7.93;5.00;;;16.90;97.30;;;;;;4975600;28;20214;-84
2021/08/16 00:47:13;;;;;;;16.70;6.20;;;16.90;97.30;;;;;;4957756;28;20473;-84
2021/08/16 00:49:39;;;;;;;9.70;5.30;;;16.90;97.30;;;;;;4956423;28;20261;-84
2021/08/16 00:52:05;;;;;;;8.00;5.30;;;16.90;97.30;;;;;;4956758;28;20485;-84
2021/08/16 00:54:31;;;;;;;10.20;5.03;;;16.90;97.30;;;;;;4956856;28;20213;-85
2021/08/16 00:56:59;;;;;;;9.90;5.63;;;16.90;97.30;;;;;;4956810;28;20458;-85
2021/08/16 00:59:25;;;;;;;10.03;5.00;;;16.80;97.30;;;;;;4972781;28;20561;-85
2021/08/16 01:01:50;;;;;;;13.23;5.70;;;16.80;97.30;;;;;;4954846;28;20532;-84
2021/08/16 01:04:16;;;;;;;12.63;6.33;;;16.90;97.30;;;;;;4972586;28;20277;-84
2021/08/16 01:06:41;;;;;;;7.67;5.20;;;16.90;97.30;;;;;;4973055;28;20551;-84
2021/08/16 01:09:07;;;;;;;9.87;5.20;;;16.90;97.30;;;;;;4956001;28;20170;-84
2021/08/16 01:11:32;;;;;;;10.07;5.10;;;16.90;97.30;;;;;;4956434;28;20190;-84
2021/08/16 01:13:58;;;;;;;8.87;5.27;;;16.90;97.30;;;;;;4957129;28;20189;-85
2021/08/16 01:16:23;;;;;;;16.93;5.00;;;16.90;97.30;;;;;;4956954;28;20191;-84
2021/08/16 01:18:50;;;;;;;10.40;4.77;;;16.90;97.30;;;;;;4957621;28;20715;-84
2021/08/16 01:21:17;;;;;;;9.87;4.70;;;16.80;97.30;;;;;;4955958;28;20695;-85
2021/08/16 01:23:44;;;;;;;9.23;4.57;;;16.80;97.30;;;;;;4956426;28;20564;-84
2021/08/16 01:26:10;;;;;;;12.87;4.50;;;16.80;97.30;;;;;;4956351;28;20803;-84
2021/08/16 01:28:36;;;;;;;9.00;4.40;;;16.80;97.30;;;;;;4956559;28;20417;-84
2021/08/16 01:31:05;;;;;;;19.03;5.67;;;16.80;97.30;;;;;;4972463;28;20438;-84
2021/08/16 01:33:31;;;;;;;9.37;4.77;;;16.80;97.30;;;;;;4972282;28;20178;-83
2021/08/16 01:35:57;;;;;;;10.33;4.50;;;16.80;97.30;;;;;;4955362;28;20955;-84
2021/08/16 01:38:28;;;;;;;9.97;4.83;;;16.70;97.30;;;;;;4972488;28;20414;-84
2021/08/16 01:40:53;;;;;;;7.10;3.90;;;16.60;97.30;;;;;;4955077;28;20771;-84
2021/08/16 01:43:19;;;;;;;9.97;4.57;;;16.60;97.30;;;;;;4955505;28;20551;-84
2021/08/16 01:45:44;;;;;;;7.77;4.40;;;16.60;97.30;;;;;;4956412;28;20186;-84
2021/08/16 01:48:13;;;;;;;8.33;4.57;;;16.70;97.30;;;;;;4957137;28;20265;-84
2021/08/16 01:50:39;;;;;;;10.97;4.60;;;16.70;97.30;;;;;;4957207;28;20195;-84
2021/08/16 01:53:04;;;;;;;7.40;4.37;;;16.70;97.30;;;;;;4956960;28;20421;-84
2021/08/16 01:55:30;;;;;;;7.47;4.07;;;16.60;97.30;;;;;;4955792;28;20421;-84
2021/08/16 01:57:55;;;;;;;12.43;4.47;;;16.60;97.30;;;;;;4956554;28;20170;-84
2021/08/16 02:00:21;;;;;;;10.60;5.80;;;16.50;97.30;;;;;;4956113;28;20210;-84
2021/08/16 02:02:46;;;;;;;11.37;4.20;;;16.50;97.30;;;;;;4955890;28;20191;-84
2021/08/16 02:05:12;;;;;;;10.50;5.23;;;16.50;97.30;;;;;;4954747;28;20226;-84
2021/08/16 02:07:37;;;;;;;10.10;4.57;;;16.50;97.30;;;;;;4954942;28;20182;-84
2021/08/16 02:10:04;;;;;;;10.97;4.67;;;16.50;97.30;;;;;;4954693;28;20191;-84
2021/08/16 02:12:29;;;;;;;6.10;4.13;;;16.50;97.30;;;;;;4955280;28;20265;-84
2021/08/16 02:14:55;;;;;;;10.30;4.67;;;16.50;97.30;;;;;;4958453;28;20875;-84
2021/08/16 02:17:20;;;;;;;8.23;4.20;;;16.50;97.30;;;;;;4960181;28;20618;-84
2021/08/16 02:19:47;;;;;;;7.70;3.90;;;16.50;97.30;;;;;;4960550;28;20191;-84
2021/08/16 02:22:13;;;;;;;13.33;5.20;;;16.50;97.30;;;;;;4960328;28;20202;-84
2021/08/16 02:24:39;;;;;;;6.13;3.87;;;16.40;97.30;;;;;;4960232;28;20465;-84
2021/08/16 02:27:04;;;;;;;10.47;4.67;;;16.40;97.30;;;;;;4959616;28;20468;-84
2021/08/16 02:29:30;;;;;;;9.27;4.90;;;16.30;97.30;;;;;;4959283;28;20222;-84
2021/08/16 02:31:56;;;;;;;7.10;4.23;;;16.30;97.30;;;;;;4959055;28;20684;-84
2021/08/16 02:34:21;;;;;;;9.90;4.87;;;16.30;97.30;;;;;;4976923;28;20325;-84
2021/08/16 02:36:47;;;;;;;11.70;3.90;;;16.20;97.30;;;;;;4958008;28;20488;-84
2021/08/16 02:39:12;;;;;;;6.07;3.73;;;16.20;97.30;;;;;;4958108;28;20193;-84
2021/08/16 02:41:38;;;;;;;8.23;4.10;;;16.20;97.30;;;;;;4958064;28;20241;-84
2021/08/16 02:44:04;;;;;;;8.07;4.67;;;16.20;97.30;;;;;;4975262;28;20198;-85
2021/08/16 02:46:30;;;;;;;6.63;4.00;;;16.20;97.30;;;;;;4958003;28;20189;-85
2021/08/16 02:48:55;;;;;;;6.17;3.50;;;16.20;97.30;;;;;;4959028;28;20430;-85
2021/08/16 02:51:21;;;;;;;10.50;4.37;;;16.20;97.30;;;;;;4977424;28;20194;-84
2021/08/16 02:53:46;;;;;;;13.03;4.03;;;16.20;97.30;;;;;;4959813;28;20186;-84
2021/08/16 02:56:12;;;;;;;8.30;3.80;;;16.10;97.30;;;;;;4977214;28;20553;-84
2021/08/16 02:58:37;;;;;;;12.00;4.00;;;16.10;97.30;;;;;;4958755;28;20711;-84
2021/08/16 03:01:03;;;;;;;5.70;4.27;;;16.10;97.30;;;;;;4958543;28;20198;-84
2021/08/16 03:03:28;;;;;;;10.47;3.60;;;16.00;97.30;;;;;;4958872;28;20274;-84
2021/08/16 03:05:54;;;;;;;8.07;3.80;;;16.00;97.30;;;;;;4958833;28;20285;-84
2021/08/16 03:08:20;;;;;;;8.03;4.87;;;16.00;97.30;;;;;;4957851;28;20230;-84
2021/08/16 03:10:45;;;;;;;8.33;4.50;;;16.00;97.30;;;;;;4957517;28;20285;-84
2021/08/16 03:13:11;;;;;;;10.30;4.40;;;16.00;97.30;;;;;;4957573;28;20230;-85
2021/08/16 03:15:36;;;;;;;10.90;4.10;;;16.00;97.30;;;;;;4974870;28;20190;-84
2021/08/16 03:18:04;;;;;;;8.23;3.50;;;16.00;97.30;;;;;;4957658;28;20186;-85
2021/08/16 03:20:30;;;;;;;9.63;4.30;;;15.90;97.30;;;;;;4975610;28;20194;-84
2021/08/16 03:22:55;;;;;;;7.27;4.20;;;15.80;97.30;;;;;;4958722;28;20434;-84
2021/08/16 03:25:21;;;;;;;11.37;4.03;;;15.80;97.30;;;;;;4958425;28;20585;-85
2021/08/16 03:27:47;;;;;;;9.43;3.80;;;15.80;97.30;;;;;;4959343;28;20183;-84
2021/08/16 03:30:14;;;;;;;7.40;3.93;;;15.80;97.30;;;;;;4958485;28;20267;-84
2021/08/16 03:32:39;;;;;;;9.50;4.60;;;15.80;97.30;;;;;;4958351;28;20250;-84
2021/08/16 03:35:06;;;;;;;13.53;3.87;;;15.90;97.30;;;;;;4957666;28;20517;-84
2021/08/16 03:37:37;;;;;;;9.50;4.40;;;15.80;97.30;;;;;;4958040;28;20247;-84
2021/08/16 03:40:04;;;;;;;8.33;4.47;;;15.80;97.30;;;;;;4957582;28;20437;-84
2021/08/16 03:42:30;;;;;;;8.20;4.47;;;15.80;97.30;;;;;;4956657;28;20923;-84
2021/08/16 03:44:56;;;;;;;8.73;4.10;;;15.80;97.30;;;;;;4957306;28;20557;-84
2021/08/16 03:47:21;;;;;;;7.37;3.93;;;15.80;97.30;;;;;;4957153;28;20257;-84
2021/08/16 03:49:47;;;;;;;8.47;4.20;;;15.70;97.30;;;;;;4957188;28;20186;-84
2021/08/16 03:52:12;;;;;;;7.70;3.87;;;15.70;97.30;;;;;;4956999;28;20198;-84
2021/08/16 03:54:38;;;;;;;10.73;4.80;;;15.80;97.30;;;;;;4958494;28;20228;-84
2021/08/16 03:57:04;;;;;;;7.40;4.40;;;15.80;97.30;;;;;;4959061;28;20183;-84
2021/08/16 03:59:29;;;;;;;7.13;3.97;;;15.80;97.30;;;;;;4958658;28;20606;-84
2021/08/16 04:01:55;;;;;;;9.93;4.27;;;15.80;97.30;;;;;;4957764;28;20611;-84
2021/08/16 04:04:20;;;;;;;9.50;4.57;;;15.70;97.30;;;;;;4957514;28;20245;-84
2021/08/16 04:06:46;;;;;;;8.90;4.77;;;15.70;97.30;;;;;;4974903;28;20175;-84
2021/08/16 04:09:12;;;;;;;6.73;3.80;;;15.80;97.30;;;;;;4957428;28;20668;-84
2021/08/16 04:11:40;;;;;;;7.53;4.40;;;15.80;97.30;;;;;;4956780;28;20202;-84
2021/08/16 04:14:06;;;;;;;8.37;4.50;;;15.90;97.30;;;;;;4956130;28;20470;-84
2021/08/16 04:16:31;;;;;;;8.87;3.97;;;15.80;97.30;;;;;;4956516;28;20449;-85
2021/08/16 04:18:57;;;;;;;7.27;3.70;;;15.80;97.30;;;;;;4961156;28;20179;-84
2021/08/16 04:21:23;;;;;;;5.90;3.70;;;15.80;97.30;;;;;;4962661;28;20639;-84
2021/08/16 04:23:49;;;;;;;6.93;3.77;;;15.90;97.30;;;;;;4962820;28;20206;-85
2021/08/16 04:26:14;;;;;;;7.40;3.83;;;15.90;97.30;;;;;;4962690;28;20565;-84
2021/08/16 04:28:40;;;;;;;6.00;3.57;;;15.90;97.30;;;;;;4979397;28;20429;-84
2021/08/16 04:31:06;;;;;;;6.03;3.50;;;16.00;97.30;;;;;;4960783;28;20202;-84
2021/08/16 04:33:31;;;;;;;7.47;4.33;;;16.00;97.30;;;;;;4958198;28;20185;-84
2021/08/16 04:35:57;;;;;;;5.67;3.40;;;16.00;97.30;;;;;;4974532;28;20410;-85
2021/08/16 04:38:23;;;;;;;7.73;3.47;;;16.10;97.30;;;;;;4962322;28;20643;-84
2021/08/16 04:40:50;;;;;;;6.47;3.40;;;16.10;97.30;;;;;;4956114;28;20199;-84
2021/08/16 04:43:15;;;;;;;8.03;3.73;;;16.20;97.30;;;;;;4979313;28;20201;-84
2021/08/16 04:45:41;;;;;;;7.73;4.40;;;16.20;97.30;;;;;;4956530;28;20473;-84
2021/08/16 04:48:07;;;;;;;12.00;4.10;;;16.20;97.30;;;;;;4955281;28;20178;-85
2021/08/16 04:50:33;;;;;;;8.37;3.83;;;16.30;97.30;;;;;;4955796;28;20205;-85
2021/08/16 04:52:58;;;;;;;9.30;4.07;;;16.30;97.30;;;;;;4956040;28;20421;-85
2021/08/16 04:55:24;;;;;;;12.83;4.30;;;16.30;97.30;;;;;;4956426;28;20201;-85
2021/08/16 04:57:49;;;;;;;7.20;3.90;;;16.30;97.30;;;;;;4957241;28;20622;-85
2021/08/16 05:00:15;;;;;;;7.27;3.77;;;16.30;97.30;;;;;;4957552;28;20206;-85
2021/08/16 05:02:41;;;;;;;9.03;3.73;;;16.30;97.30;;;;;;4957599;28;20210;-85
2021/08/16 05:05:11;;;;;;;5.07;3.37;;;16.30;97.30;;;;;;4957890;28;20482;-85
2021/08/16 05:07:38;;;;;;;8.57;4.43;;;16.40;97.30;;;;;;4956293;28;20422;-85
2021/08/16 05:10:06;;;;;;;5.40;3.47;;;16.50;97.30;;;;;;4958017;28;20525;-85
2021/08/16 05:12:34;;;;;;;8.40;4.60;;;16.50;97.30;;;;;;4956574;28;20435;-86
2021/08/16 05:14:59;;;;;;;12.63;4.37;;;16.60;97.30;;;;;;4973122;28;20488;-86
2021/08/16 05:17:25;;;;;;;13.17;4.67;;;16.70;97.30;;;;;;4955567;28;20426;-85
2021/08/16 05:19:51;;;;;;;5.40;4.00;;;16.80;97.30;;;;;;4955554;28;20186;-85
2021/08/16 05:22:16;;;;;;;9.00;4.77;;;16.90;97.30;;;;;;4955596;28;21039;-85
2021/08/16 05:24:42;;;;;;;6.40;3.60;;;17.00;97.30;;;;;;4955904;28;20257;-86
2021/08/16 05:27:07;;;;;;;8.90;4.77;;;17.00;97.30;;;;;;4955898;28;20563;-85
2021/08/16 05:29:33;;;;;;;7.73;4.10;;;17.10;97.30;;;;;;4974165;28;20549;-86
2021/08/16 05:31:58;;;;;;;7.47;3.97;;;17.30;97.30;;;;;;4957276;28;20281;-86
2021/08/16 05:34:24;;;;;;;5.27;3.90;;;17.40;97.30;;;;;;4957182;28;20182;-86
2021/08/16 05:36:52;;;;;;;7.70;4.10;;;17.50;97.30;;;;;;4957398;28;20655;-86
2021/08/16 05:39:18;;;;;;;5.30;3.40;;;17.60;97.30;;;;;;4974039;28;20430;-85
2021/08/16 05:41:43;;;;;;;9.07;4.67;;;17.70;97.30;;;;;;4956266;28;20839;-86
2021/08/16 05:44:09;;;;;;;8.47;3.73;;;17.70;97.30;;;;;;4956036;28;20657;-86
2021/08/16 05:46:34;;;;;;;7.47;4.07;;;17.80;97.30;;;;;;4956444;28;20174;-86
2021/08/16 05:49:00;;;;;;;7.30;3.80;;;17.90;97.30;;;;;;4957622;28;20222;-86
2021/08/16 05:51:25;;;;;;;10.10;3.50;;;17.90;97.30;;;;;;4959269;28;20200;-86
2021/08/16 05:53:51;;;;;;;7.10;3.33;;;18.00;97.30;;;;;;4958950;28;20605;-85
2021/08/16 05:56:16;;;;;;;11.13;4.20;;;18.10;97.30;;;;;;4959198;28;20221;-85
2021/08/16 05:58:42;;;;;;;7.40;3.80;;;18.20;97.30;;;;;;4959201;28;20182;-85
2021/08/16 06:01:08;;;;;;;6.53;3.30;;;18.30;97.30;;;;;;4976534;28;20198;-85
2021/08/16 06:03:34;;;;;;;9.30;4.20;;;18.30;97.30;;;;;;4977560;28;20762;-85
2021/08/16 06:05:59;;;;;;;6.50;3.73;;;18.40;97.30;;;;;;4961068;28;20241;-86
2021/08/16 06:08:25;;;;;;;6.13;3.40;;;18.40;97.30;;;;;;4961302;28;20175;-86
2021/08/16 06:10:50;;;;;;;4.63;3.33;;;18.40;97.30;;;;;;4977669;28;20202;-86
2021/08/16 06:13:16;;;;;;;12.53;4.13;;;18.50;97.30;;;;;;4959986;28;20186;-86
2021/08/16 06:15:41;;;;;;;7.77;3.67;;;18.60;97.30;;;;;;4959682;28;20194;-86
2021/08/16 06:18:07;;;;;;;5.73;3.70;;;18.60;97.30;;;;;;4959753;28;20198;-85
2021/08/16 06:20:32;;;;;;;6.67;3.30;;;18.70;97.30;;;;;;4959320;28;20297;-86
2021/08/16 06:22:58;;;;;;;9.47;3.67;;;18.80;97.30;;;;;;4958529;28;20205;-86
2021/08/16 06:25:24;;;;;;;5.57;2.90;;;18.80;97.30;;;;;;4958684;28;20211;-85
2021/08/16 06:27:49;;;;;;;5.67;3.30;;;18.90;97.30;;;;;;4958566;28;20185;-85
2021/08/16 06:30:15;;;;;;;6.73;3.53;;;19.00;97.30;;;;;;4958772;28;20414;-85
2021/08/16 06:32:40;;;;;;;5.70;3.70;;;19.10;97.30;;;;;;4959459;28;20214;-86
2021/08/16 06:35:07;;;;;;;6.93;3.33;;;19.30;97.30;;;;;;4959815;28;20193;-85
2021/08/16 06:37:32;;;;;;;5.43;2.80;;;19.40;97.30;;;;;;4977805;28;20531;-85
2021/08/16 06:39:58;;;;;;;4.77;3.10;;;19.60;97.30;;;;;;4960031;28;20507;-86
2021/08/16 06:42:24;;;;;;;5.60;2.80;;;19.70;97.30;;;;;;4959737;28;20612;-85
2021/08/16 06:44:49;;;;;;;7.80;2.87;;;19.80;97.30;;;;;;4959101;28;20354;-86
2021/08/16 06:47:15;;;;;;;7.13;2.90;;;19.90;97.30;;;;;;4959386;28;20201;-85
2021/08/16 06:49:41;;;;;;;6.63;3.70;;;20.00;97.30;;;;;;4958923;28;20186;-86
2021/08/16 06:52:06;;;;;;;8.53;3.53;;;20.10;97.30;;;;;;4958516;28;20253;-85
2021/08/16 06:54:32;;;;;;;8.73;4.00;;;20.20;97.30;;;;;;4957251;28;20194;-85
2021/08/16 06:56:58;;;;;;;9.37;4.20;;;20.30;97.30;;;;;;4974756;28;20183;-86
2021/08/16 06:59:24;;;;;;;11.10;4.20;;;20.40;97.30;;;;;;4956242;28;20723;-86
2021/08/16 07:01:50;;;;;;;9.53;4.73;;;20.40;97.30;;;;;;4976249;28;20442;-86
2021/08/16 07:04:15;;;;;;;9.53;4.93;;;20.50;97.30;;;;;;4974234;28;20206;-86
2021/08/16 07:06:41;;;;;;;8.33;4.30;;;20.60;97.30;;;;;;4958359;28;20182;-87
2021/08/16 07:09:06;;;;;;;12.83;4.80;;;20.70;97.30;;;;;;4958939;28;20182;-86
2021/08/16 07:11:32;;;;;;;9.83;4.83;;;20.70;97.30;;;;;;4959784;28;20552;-86
2021/08/16 07:13:58;;;;;;;10.70;4.50;;;20.70;97.30;;;;;;4976804;28;20179;-85
2021/08/16 07:16:23;;;;;;;8.43;4.73;;;20.70;97.30;;;;;;4958640;28;20189;-86
2021/08/16 07:18:49;;;;;;;8.93;4.20;;;20.70;97.30;;;;;;4958933;28;20479;-86
2021/08/16 07:21:14;;;;;;;9.27;4.93;;;20.60;97.30;;;;;;4962078;28;20198;-86
2021/08/16 07:23:40;;;;;;;9.53;3.10;;;20.60;97.30;;;;;;4996480;28;20248;-87
2021/08/16 07:26:06;;;;;;;10.10;4.07;;;20.60;97.30;;;;;;4978021;28;20182;-86
2021/08/16 07:28:33;;;;;;;6.80;3.73;;;20.70;97.30;;;;;;4979909;28;20174;-86
2021/08/16 07:31:00;;;;;;;8.97;4.00;;;20.70;97.30;;;;;;4965332;28;20446;-86
2021/08/16 07:33:26;;;;;;;6.73;3.53;;;20.80;97.30;;;;;;4957070;28;20426;-85
2021/08/16 07:35:52;;;;;;;6.10;3.10;;;21.00;97.30;;;;;;4957390;28;20410;-87
2021/08/16 07:38:18;;;;;;;7.23;3.50;;;21.20;97.30;;;;;;4974962;28;20429;-86
2021/08/16 07:40:44;;;;;;;6.53;3.17;;;21.30;97.30;;;;;;4958204;28;20198;-86
2021/08/16 07:43:10;;;;;;;7.67;4.20;;;21.50;97.30;;;;;;4975019;28;20843;-86
2021/08/16 07:45:36;;;;;;;5.47;3.20;;;21.60;97.30;;;;;;4976246;28;20470;-85
2021/08/16 07:48:03;;;;;;;5.40;3.33;;;21.70;97.10;;;;;;4959004;28;20178;-86
2021/08/16 07:50:30;;;;;;;6.90;3.17;;;21.80;96.50;;;;;;4958467;28;20469;-87
2021/08/16 07:52:55;;;;;;;7.93;3.07;;;21.80;96.20;;;;;;4957703;28;20430;-86
2021/08/16 07:55:21;;;;;;;8.43;3.30;;;21.70;96.10;;;;;;4958023;28;20500;-86
2021/08/16 07:57:47;;;;;;;6.80;3.63;;;21.60;96.40;;;;;;4958240;28;20280;-87
2021/08/16 08:00:12;;;;;;;8.43;3.20;;;21.60;96.10;;;;;;4957663;28;20179;-86
2021/08/16 08:02:49;;;;;;;5.10;3.13;;;21.70;96.40;;;;;;4957547;28;20179;-86
2021/08/16 08:05:20;;;;;;;6.50;3.40;;;21.70;96.00;;;;;;4956209;28;20544;-86
2021/08/16 08:07:46;;;;;;;4.63;3.07;;;21.90;95.90;;;;;;4953631;28;20438;-87
2021/08/16 08:10:13;;;;;;;5.83;3.33;;;22.20;95.90;;;;;;4955296;28;20441;-86
2021/08/16 08:12:41;;;;;;;7.67;3.53;;;22.40;93.70;;;;;;4955888;28;20491;-85
2021/08/16 08:15:07;;;;;;;4.93;2.90;;;22.50;94.00;;;;;;4955868;28;20422;-86
2021/08/16 08:17:33;;;;;;;5.80;3.30;;;22.70;93.20;;;;;;4974578;28;20426;-83
2021/08/16 08:19:59;;;;;;;9.50;3.90;;;22.70;92.90;;;;;;4956868;28;20422;-85
2021/08/16 08:22:25;;;;;;;11.37;3.60;;;22.80;92.50;;;;;;4957889;28;20430;-86
2021/08/16 08:24:52;;;;;;;7.97;3.53;;;22.80;90.50;;;;;;4957344;28;20213;-86
2021/08/16 08:27:18;;;;;;;9.73;3.70;;;22.90;90.50;;;;;;4957617;28;20421;-85
2021/08/16 08:29:44;;;;;;;12.53;4.20;;;23.00;89.60;;;;;;4957335;28;20501;-87
2021/08/16 08:32:10;;;;;;;7.67;3.37;;;23.10;90.10;;;;;;4956969;28;20540;-86
2021/08/16 08:34:36;;;;;;;11.10;4.20;;;23.30;89.80;;;;;;4975269;28;20187;-87
2021/08/16 08:37:03;;;;;;;5.63;3.40;;;23.40;88.60;;;;;;4992910;28;20181;-87
2021/08/16 08:39:28;;;;;;;9.63;3.53;;;23.50;88.40;;;;;;4975330;28;20182;-86
2021/08/16 08:41:57;;;;;;;6.87;3.40;;;23.50;88.00;;;;;;4992355;28;20478;-86
2021/08/16 08:44:24;;;;;;;8.20;3.70;;;23.50;87.40;;;;;;4975525;28;20268;-87
2021/08/16 08:46:50;;;;;;;8.20;3.87;;;23.50;86.60;;;;;;4975444;28;20463;-86
2021/08/16 08:49:16;;;;;;;9.87;3.80;;;23.50;87.40;;;;;;4961758;28;20871;-86
2021/08/16 08:51:42;;;;;;;8.07;3.40;;;23.60;87.60;;;;;;4957146;28;20461;-85
2021/08/16 08:54:08;;;;;;;9.60;3.40;;;23.70;87.10;;;;;;4974198;28;20178;-87
2021/08/16 08:56:34;;;;;;;6.67;3.10;;;23.80;85.60;;;;;;4956924;28;20442;-86
2021/08/16 08:59:00;;;;;;;5.50;2.50;;;23.90;83.30;;;;;;4956321;28;20186;-86
2021/08/16 09:01:27;;;;;;;4.23;2.30;;;23.90;80.10;;;;;;4973740;28;20589;-86
2021/08/16 09:03:53;;;;;;;8.60;2.13;;;23.90;78.20;;;;;;4973445;28;20573;-87
2021/08/16 09:06:29;;;;;;;11.87;2.93;;;23.80;79.50;;;;;;4956555;28;20513;-85
2021/08/16 09:08:55;;;;;;;7.27;3.20;;;23.80;79.50;;;;;;4955689;28;20561;-87
2021/08/16 09:11:20;;;;;;;6.30;2.80;;;23.70;80.50;;;;;;4955456;28;20507;-86
2021/08/16 09:13:49;;;;;;;5.60;2.50;;;23.80;80.00;;;;;;4955767;28;21179;-88
2021/08/16 09:16:15;;;;;;;7.07;2.57;;;23.80;80.50;;;;;;4955549;28;20320;-86
2021/08/16 09:18:40;;;;;;;4.87;2.33;;;23.90;80.70;;;;;;4956214;28;20524;-87
2021/08/16 09:21:06;;;;;;;5.23;2.90;;;23.80;80.20;;;;;;4956196;28;20213;-87
2021/08/16 09:23:45;;;;;;;8.23;2.93;;;23.80;81.20;;;;;;4956584;28;20178;-86
2021/08/16 09:26:11;;;;;;;11.67;2.87;;;23.80;79.50;;;;;;4957137;28;20186;-87
2021/08/16 09:28:38;;;;;;;8.57;2.57;;;23.80;80.40;;;;;;4957814;28;20795;-87
2021/08/16 09:31:15;;;;;;;4.93;2.50;;;23.90;80.30;;;;;;4973712;28;20658;-83
2021/08/16 09:33:57;;;;;;;4.20;2.30;;;24.00;79.50;;;;;;4956076;28;20428;-85
2021/08/16 09:36:39;;;;;;;4.43;2.27;;;24.10;79.90;;;;;;4956758;28;20410;-86
2021/08/16 09:39:22;;;;;;;9.13;2.70;;;24.10;78.80;;;;;;4956094;28;20935;-87
2021/08/16 09:41:47;;;;;;;6.50;2.83;;;24.10;79.50;;;;;;4955850;28;20504;-86
2021/08/16 09:44:14;;;;;;;3.97;2.23;;;24.10;78.50;;;;;;4955484;28;20501;-87
2021/08/16 09:46:41;;;;;;;4.07;2.30;;;24.20;78.40;;;;;;4955380;28;20381;-86
2021/08/16 09:49:08;;;;;;;3.93;2.07;;;24.30;77.80;;;;;;4955030;28;20422;-84
2021/08/16 09:51:35;;;;;;;4.37;2.97;;;24.30;77.50;;;;;;4954466;28;20528;-84
2021/08/16 09:54:02;;;;;;;7.60;2.60;;;24.30;77.10;;;;;;4955962;28;20429;-87
2021/08/16 09:56:30;;;;;;;4.37;2.20;;;24.30;78.00;;;;;;4976799;28;20426;-85
2021/08/16 09:58:56;;;;;;;5.97;2.30;;;24.50;78.70;;;;;;4959994;28;20426;-84
2021/08/16 10:01:24;;;;;;;5.63;2.33;;;24.60;77.60;;;;;;4959454;28;20453;-85
2021/08/16 10:03:49;;;;;;;3.00;2.30;;;24.60;78.20;;;;;;4976826;28;20264;-86
2021/08/16 10:06:16;;;;;;;4.43;2.00;;;24.70;79.10;;;;;;4958126;28;20425;-86
2021/08/16 10:08:56;;;;;;;6.67;2.30;;;24.60;80.30;;;;;;4958784;28;20206;-87
2021/08/16 10:11:22;;;;;;;3.37;1.70;;;24.30;78.80;;;;;;4959292;28;20955;-83
2021/08/16 10:13:53;;;;;;;4.53;1.90;;;24.00;78.70;;;;;;4939244;29;21004;-85
2021/08/16 10:16:31;;;;;;;4.17;2.10;;;23.90;77.30;;;;;;4956188;29;20860;-85
2021/08/16 10:19:07;;;;;;;5.63;2.63;;;23.80;77.60;;;;;;4938835;29;20752;-85
2021/08/16 10:21:36;;;;;;;9.83;2.63;;;23.80;78.80;;;;;;4938229;29;20520;-86
2021/08/16 10:24:02;;;;;;;2.70;2.00;;;23.80;79.80;;;;;;4939882;28;20461;-84
2021/08/16 10:26:32;;;;;;;4.53;2.10;;;23.80;79.30;;;;;;4955851;28;20796;-83
2021/08/16 10:29:03;;;;;;;6.10;2.93;;;23.80;80.30;;;;;;4955694;28;20190;-85
2021/08/16 10:31:35;;;;;;;4.63;2.20;;;23.80;80.50;;;;;;4955572;28;20441;-87
2021/08/16 10:34:02;;;;;;;5.97;2.30;;;23.90;79.40;;;;;;4957478;28;20819;-86
2021/08/16 10:36:27;;;;;;;6.73;3.10;;;23.90;79.50;;;;;;4960939;28;20413;-85
2021/08/16 10:39:00;;;;;;;7.03;3.43;;;23.80;78.70;;;;;;4960425;28;20794;-85
2021/08/16 10:41:39;;;;;;;4.00;2.30;;;23.80;79.20;;;;;;4960259;28;20255;-84
2021/08/16 10:44:17;;;;;;;6.00;2.30;;;23.80;78.90;;;;;;4976673;28;20483;-84
2021/08/16 10:46:46;;;;;;;3.27;2.00;;;23.80;78.00;;;;;;4975664;28;20425;-85
2021/08/16 10:49:14;;;;;;;5.47;2.40;;;23.80;77.40;;;;;;4964818;28;20422;-85
2021/08/16 10:51:48;;;;;;;5.03;2.63;;;23.80;78.00;;;;;;4959198;28;20437;-85
2021/08/16 10:54:28;;;;;;;4.87;1.90;;;23.70;78.30;;;;;;4957816;28;20422;-85
2021/08/16 10:56:55;;;;;;;4.53;1.93;;;23.80;79.80;;;;;;4957861;28;20429;-86
2021/08/16 10:59:22;;;;;;;5.93;2.20;;;23.90;78.70;;;;;;4958260;28;20433;-85
2021/08/16 11:01:49;;;;;;;5.90;2.33;;;23.90;78.70;;;;;;4944457;29;21012;-85
2021/08/16 11:04:17;;;;;;;9.93;2.40;;;24.00;78.20;;;;;;4939013;29;20972;-86
2021/08/16 11:07:00;;;;;;;5.33;2.60;;;23.90;78.70;;;;;;4939338;29;20427;-83
2021/08/16 11:09:35;;;;;;;6.43;2.53;;;23.70;78.70;;;;;;4940475;29;20450;-81
2021/08/16 11:12:05;;;;;;;5.93;2.47;;;23.70;79.60;;;;;;4938423;29;20706;-84
2021/08/16 11:14:32;;;;;;;7.40;2.90;;;23.80;79.90;;;;;;4956153;29;20411;-85
2021/08/16 11:16:58;;;;;;;4.53;2.53;;;23.80;80.00;;;;;;4938885;29;20423;-85
2021/08/16 11:19:24;;;;;;;7.57;2.70;;;23.90;80.20;;;;;;4956133;29;20932;-82
2021/08/16 11:21:54;;;;;;;3.97;2.27;;;24.10;80.00;;;;;;4939436;29;20203;-84
2021/08/16 11:24:29;;;;;;;5.20;2.23;;;24.10;77.80;;;;;;4940199;29;20988;-84
2021/08/16 11:26:55;;;;;;;7.10;2.73;;;23.70;78.80;;;;;;4940006;29;20422;-83
2021/08/16 11:29:23;;;;;;;8.10;2.17;;;23.70;79.20;;;;;;4940166;29;20854;-82
2021/08/16 11:32:02;;;;;;;5.43;2.07;;;23.90;79.20;;;;;;4955737;29;20439;-83
2021/08/16 11:34:29;;;;;;;4.30;1.83;;;24.10;78.70;;;;;;4956262;29;20411;-84
2021/08/16 11:36:56;;;;;;;6.47;2.00;;;24.10;77.30;;;;;;4939406;29;20418;-82
2021/08/16 11:39:30;;;;;;;5.33;2.20;;;24.00;77.20;;;;;;4950186;28;20466;-84
2021/08/16 11:42:01;;;;;;;6.20;2.40;;;23.90;78.30;;;;;;4956795;28;20548;-85
2021/08/16 11:44:28;;;;;;;2.13;1.80;;;23.80;76.90;;;;;;4956529;28;20473;-85
2021/08/16 11:46:57;;;;;;;2.57;1.80;;;23.80;78.00;;;;;;4955257;28;20434;-85
2021/08/16 11:49:25;;;;;;;4.67;2.00;;;23.80;77.90;;;;;;4956223;28;20454;-84
2021/08/16 11:51:50;;;;;;;6.67;2.27;;;23.80;78.50;;;;;;4957460;28;20994;-84
2021/08/16 11:54:32;;;;;;;4.03;1.90;;;23.90;78.20;;;;;;4956633;28;20433;-83
2021/08/16 11:57:00;;;;;;;2.47;1.90;;;24.00;76.60;;;;;;4958271;28;20205;-84
2021/08/16 11:59:27;;;;;;;4.13;1.70;;;23.90;76.60;;;;;;4956772;28;20488;-84
2021/08/16 12:01:55;;;;;;;5.77;2.27;;;23.90;77.90;;;;;;4957845;28;20508;-84
2021/08/16 12:04:21;;;;;;;6.13;2.20;;;24.10;77.30;;;;;;4957999;28;20551;-85
2021/08/16 12:06:53;;;;;;;9.00;2.80;;;24.10;77.00;;;;;;4956521;28;20824;-85
2021/08/16 12:09:19;;;;;;;4.73;2.23;;;24.20;77.20;;;;;;4956627;28;20452;-85
2021/08/16 12:11:57;;;;;;;6.87;2.77;;;24.20;76.90;;;;;;4974441;28;20445;-85
2021/08/16 12:14:30;;;;;;;3.73;1.90;;;24.10;76.60;;;;;;4957067;28;20630;-84
2021/08/16 12:16:56;;;;;;;5.13;2.10;;;24.10;76.50;;;;;;4957424;28;20437;-85
2021/08/16 12:19:23;;;;;;;2.70;1.63;;;24.00;76.70;;;;;;4955751;28;20437;-84
2021/08/16 12:22:07;;;;;;;5.27;2.10;;;23.90;76.60;;;;;;4972812;28;20446;-85
2021/08/16 12:24:34;;;;;;;4.13;2.10;;;23.90;77.00;;;;;;4954624;28;20583;-86
2021/08/16 12:27:05;;;;;;;3.90;1.60;;;23.90;78.40;;;;;;4955132;28;20441;-83
2021/08/16 12:29:42;;;;;;;6.60;2.30;;;24.10;77.40;;;;;;4955322;28;20774;-86
2021/08/16 12:32:17;;;;;;;11.63;2.20;;;23.90;76.80;;;;;;4956027;28;21022;-85
2021/08/16 12:34:43;;;;;;;3.87;2.17;;;23.80;77.20;;;;;;4957111;28;20425;-84
2021/08/16 12:37:24;;;;;;;8.67;2.50;;;23.90;78.20;;;;;;4956442;28;20800;-86
2021/08/16 12:39:50;;;;;;;7.50;2.23;;;24.00;77.60;;;;;;4958365;28;20422;-83
2021/08/16 12:42:16;;;;;;;4.27;2.10;;;24.00;77.50;;;;;;4958428;28;20606;-82
2021/08/16 12:44:52;;;;;;;4.03;2.23;;;23.90;78.00;;;;;;4957187;28;20677;-85